sensor_id;sensor_type;location;lat;lon;timestamp;P1;durP1;ratioP1;P2;durP2;ratioP2
6941;SDS011;3510;43.200;27.920;2023-04-16T00:05:39;8.30;;;5.37;;
6941;SDS011;3510;43.200;27.920;2023-04-16T00:08:07;6.23;;;4.80;;
6941;SDS011;3510;43.200;27.920;2023-04-16T00:10:34;8.93;;;5.10;;
6941;SDS011;3510;43.200;27.920;2023-04-16T00:13:03;8.70;;;5.20;;
6941;SDS011;3510;43.200;27.920;2023-04-16T00:15:30;12.23;;;5.03;;
6941;SDS011;3510;43.200;27.920;2023-04-16T00:17:57;14.57;;;6.77;;
6941;SDS011;3510;43.200;27.920;2023-04-16T00:20:26;11.03;;;5.20;;
6941;SDS011;3510;43.200;27.920;2023-04-16T00:22:55;9.53;;;5.37;;
6941;SDS011;3510;43.200;27.920;2023-04-16T00:25:22;17.43;;;6.17;;
6941;SDS011;3510;43.200;27.920;2023-04-16T00:27:49;11.10;;;5.43;;
6941;SDS011;3510;43.200;27.920;2023-04-16T00:30:16;9.87;;;5.63;;
6941;SDS011;3510;43.200;27.920;2023-04-16T00:32:43;7.53;;;5.17;;
6941;SDS011;3510;43.200;27.920;2023-04-16T00:35:10;11.23;;;6.10;;
6941;SDS011;3510;43.200;27.920;2023-04-16T00:37:38;11.37;;;6.00;;
6941;SDS011;3510;43.200;27.920;2023-04-16T00:40:06;8.33;;;6.17;;
6941;SDS011;3510;43.200;27.920;2023-04-16T00:42:33;13.23;;;6.60;;
6941;SDS011;3510;43.200;27.920;2023-04-16T00:45:02;12.30;;;6.07;;
6941;SDS011;3510;43.200;27.920;2023-04-16T00:47:30;9.87;;;6.80;;
6941;SDS011;3510;43.200;27.920;2023-04-16T00:49:57;6.67;;;5.57;;
6941;SDS011;3510;43.200;27.920;2023-04-16T00:52:24;14.97;;;6.80;;
6941;SDS011;3510;43.200;27.920;2023-04-16T00:54:51;11.77;;;5.80;;
6941;SDS011;3510;43.200;27.920;2023-04-16T00:57:20;10.30;;;7.00;;
6941;SDS011;3510;43.200;27.920;2023-04-16T00:59:48;15.17;;;6.60;;
6941;SDS011;3510;43.200;27.920;2023-04-16T01:02:15;11.93;;;6.63;;
6941;SDS011;3510;43.200;27.920;2023-04-16T01:04:46;11.67;;;8.93;;
6941;SDS011;3510;43.200;27.920;2023-04-16T01:07:13;13.97;;;7.13;;
6941;SDS011;3510;43.200;27.920;2023-04-16T01:09:40;9.20;;;7.80;;
6941;SDS011;3510;43.200;27.920;2023-04-16T01:12:06;11.43;;;7.63;;
6941;SDS011;3510;43.200;27.920;2023-04-16T01:14:35;7.67;;;6.03;;
6941;SDS011;3510;43.200;27.920;2023-04-16T01:17:01;10.23;;;6.73;;
6941;SDS011;3510;43.200;27.920;2023-04-16T01:19:29;10.13;;;6.07;;
6941;SDS011;3510;43.200;27.920;2023-04-16T01:21:57;10.37;;;7.03;;
6941;SDS011;3510;43.200;27.920;2023-04-16T01:24:24;9.53;;;6.63;;
6941;SDS011;3510;43.200;27.920;2023-04-16T01:26:51;8.80;;;7.67;;
6941;SDS011;3510;43.200;27.920;2023-04-16T01:29:17;14.73;;;7.13;;
6941;SDS011;3510;43.200;27.920;2023-04-16T01:31:44;9.97;;;7.27;;
6941;SDS011;3510;43.200;27.920;2023-04-16T01:34:11;16.23;;;7.43;;
6941;SDS011;3510;43.200;27.920;2023-04-16T01:36:38;14.20;;;8.23;;
6941;SDS011;3510;43.200;27.920;2023-04-16T01:39:06;13.23;;;7.17;;
6941;SDS011;3510;43.200;27.920;2023-04-16T01:41:36;12.53;;;6.53;;
6941;SDS011;3510;43.200;27.920;2023-04-16T01:44:03;8.43;;;7.37;;
6941;SDS011;3510;43.200;27.920;2023-04-16T01:46:30;11.37;;;7.03;;
6941;SDS011;3510;43.200;27.920;2023-04-16T01:48:59;12.33;;;7.77;;
6941;SDS011;3510;43.200;27.920;2023-04-16T01:51:27;14.10;;;7.43;;
6941;SDS011;3510;43.200;27.920;2023-04-16T01:53:54;15.27;;;7.70;;
6941;SDS011;3510;43.200;27.920;2023-04-16T01:56:23;16.03;;;7.60;;
6941;SDS011;3510;43.200;27.920;2023-04-16T01:58:50;8.53;;;7.03;;
6941;SDS011;3510;43.200;27.920;2023-04-16T02:01:17;10.47;;;7.37;;
6941;SDS011;3510;43.200;27.920;2023-04-16T02:03:44;12.47;;;7.73;;
6941;SDS011;3510;43.200;27.920;2023-04-16T02:06:12;10.70;;;6.93;;
6941;SDS011;3510;43.200;27.920;2023-04-16T02:08:38;8.47;;;6.17;;
6941;SDS011;3510;43.200;27.920;2023-04-16T02:11:06;9.13;;;7.17;;
6941;SDS011;3510;43.200;27.920;2023-04-16T02:13:35;10.23;;;7.47;;
6941;SDS011;3510;43.200;27.920;2023-04-16T02:16:01;17.20;;;6.93;;
6941;SDS011;3510;43.200;27.920;2023-04-16T02:18:28;11.83;;;7.73;;
6941;SDS011;3510;43.200;27.920;2023-04-16T02:20:56;20.17;;;8.13;;
6941;SDS011;3510;43.200;27.920;2023-04-16T02:23:24;14.80;;;7.97;;
6941;SDS011;3510;43.200;27.920;2023-04-16T02:25:51;12.43;;;8.13;;
6941;SDS011;3510;43.200;27.920;2023-04-16T02:28:25;10.50;;;6.63;;
6941;SDS011;3510;43.200;27.920;2023-04-16T02:30:54;13.80;;;7.23;;
6941;SDS011;3510;43.200;27.920;2023-04-16T02:33:21;11.30;;;7.00;;
6941;SDS011;3510;43.200;27.920;2023-04-16T02:35:50;13.00;;;7.23;;
6941;SDS011;3510;43.200;27.920;2023-04-16T02:38:17;17.53;;;7.53;;
6941;SDS011;3510;43.200;27.920;2023-04-16T02:40:44;12.27;;;7.90;;
6941;SDS011;3510;43.200;27.920;2023-04-16T02:43:11;9.47;;;6.17;;
6941;SDS011;3510;43.200;27.920;2023-04-16T02:45:41;12.87;;;7.33;;
6941;SDS011;3510;43.200;27.920;2023-04-16T02:48:10;16.67;;;7.57;;
6941;SDS011;3510;43.200;27.920;2023-04-16T02:50:37;18.13;;;7.73;;
6941;SDS011;3510;43.200;27.920;2023-04-16T02:53:04;12.30;;;6.60;;
6941;SDS011;3510;43.200;27.920;2023-04-16T02:55:31;14.70;;;7.70;;
6941;SDS011;3510;43.200;27.920;2023-04-16T02:57:58;16.27;;;7.13;;
6941;SDS011;3510;43.200;27.920;2023-04-16T03:00:25;10.20;;;7.47;;
6941;SDS011;3510;43.200;27.920;2023-04-16T03:02:52;12.73;;;7.37;;
6941;SDS011;3510;43.200;27.920;2023-04-16T03:05:21;11.80;;;7.20;;
6941;SDS011;3510;43.200;27.920;2023-04-16T03:07:49;12.73;;;7.53;;
6941;SDS011;3510;43.200;27.920;2023-04-16T03:10:20;18.87;;;7.27;;
6941;SDS011;3510;43.200;27.920;2023-04-16T03:12:48;8.43;;;6.47;;
6941;SDS011;3510;43.200;27.920;2023-04-16T03:15:15;9.77;;;6.00;;
6941;SDS011;3510;43.200;27.920;2023-04-16T03:17:42;13.50;;;6.33;;
6941;SDS011;3510;43.200;27.920;2023-04-16T03:20:10;16.93;;;7.47;;
6941;SDS011;3510;43.200;27.920;2023-04-16T03:22:39;11.70;;;7.50;;
6941;SDS011;3510;43.200;27.920;2023-04-16T03:25:06;8.47;;;7.37;;
6941;SDS011;3510;43.200;27.920;2023-04-16T03:27:35;14.00;;;7.40;;
6941;SDS011;3510;43.200;27.920;2023-04-16T03:30:04;11.13;;;6.83;;
6941;SDS011;3510;43.200;27.920;2023-04-16T03:32:31;11.63;;;6.97;;
6941;SDS011;3510;43.200;27.920;2023-04-16T03:34:58;8.30;;;6.90;;
6941;SDS011;3510;43.200;27.920;2023-04-16T03:37:25;12.63;;;7.10;;
6941;SDS011;3510;43.200;27.920;2023-04-16T03:39:53;14.87;;;7.53;;
6941;SDS011;3510;43.200;27.920;2023-04-16T03:42:20;18.70;;;7.80;;
6941;SDS011;3510;43.200;27.920;2023-04-16T03:44:46;13.13;;;7.47;;
6941;SDS011;3510;43.200;27.920;2023-04-16T03:47:13;10.83;;;7.83;;
6941;SDS011;3510;43.200;27.920;2023-04-16T03:49:40;12.63;;;6.53;;
6941;SDS011;3510;43.200;27.920;2023-04-16T03:52:07;12.60;;;6.47;;
6941;SDS011;3510;43.200;27.920;2023-04-16T03:54:35;11.03;;;7.50;;
6941;SDS011;3510;43.200;27.920;2023-04-16T03:57:03;16.33;;;6.93;;
6941;SDS011;3510;43.200;27.920;2023-04-16T03:59:30;15.77;;;7.90;;
6941;SDS011;3510;43.200;27.920;2023-04-16T04:01:57;10.03;;;6.87;;
6941;SDS011;3510;43.200;27.920;2023-04-16T04:04:24;8.73;;;6.60;;
6941;SDS011;3510;43.200;27.920;2023-04-16T04:06:51;9.93;;;6.83;;
6941;SDS011;3510;43.200;27.920;2023-04-16T04:09:18;13.13;;;7.17;;
6941;SDS011;3510;43.200;27.920;2023-04-16T04:11:45;18.17;;;7.93;;
6941;SDS011;3510;43.200;27.920;2023-04-16T04:14:14;13.83;;;8.17;;
6941;SDS011;3510;43.200;27.920;2023-04-16T04:16:41;10.40;;;6.07;;
6941;SDS011;3510;43.200;27.920;2023-04-16T04:19:07;15.23;;;7.13;;
6941;SDS011;3510;43.200;27.920;2023-04-16T04:21:35;13.27;;;7.23;;
6941;SDS011;3510;43.200;27.920;2023-04-16T04:24:02;11.63;;;6.87;;
6941;SDS011;3510;43.200;27.920;2023-04-16T04:26:29;12.47;;;6.67;;
6941;SDS011;3510;43.200;27.920;2023-04-16T04:28:56;9.27;;;6.40;;
6941;SDS011;3510;43.200;27.920;2023-04-16T04:31:24;12.37;;;7.63;;
6941;SDS011;3510;43.200;27.920;2023-04-16T04:33:51;14.57;;;7.87;;
6941;SDS011;3510;43.200;27.920;2023-04-16T04:36:18;13.97;;;7.20;;
6941;SDS011;3510;43.200;27.920;2023-04-16T04:38:45;13.07;;;7.10;;
6941;SDS011;3510;43.200;27.920;2023-04-16T04:41:12;10.47;;;6.83;;
6941;SDS011;3510;43.200;27.920;2023-04-16T04:43:39;10.93;;;7.07;;
6941;SDS011;3510;43.200;27.920;2023-04-16T04:46:06;10.60;;;7.33;;
6941;SDS011;3510;43.200;27.920;2023-04-16T04:48:34;11.87;;;7.53;;
6941;SDS011;3510;43.200;27.920;2023-04-16T04:51:00;10.40;;;6.23;;
6941;SDS011;3510;43.200;27.920;2023-04-16T04:53:28;17.60;;;6.88;;
6941;SDS011;3510;43.200;27.920;2023-04-16T04:55:55;12.32;;;7.10;;
6941;SDS011;3510;43.200;27.920;2023-04-16T04:58:22;8.98;;;6.57;;
6941;SDS011;3510;43.200;27.920;2023-04-16T05:00:50;12.13;;;6.82;;
6941;SDS011;3510;43.200;27.920;2023-04-16T05:03:18;17.33;;;7.18;;
6941;SDS011;3510;43.200;27.920;2023-04-16T05:05:47;9.25;;;7.57;;
6941;SDS011;3510;43.200;27.920;2023-04-16T05:08:15;13.68;;;7.68;;
6941;SDS011;3510;43.200;27.920;2023-04-16T05:10:42;14.32;;;7.30;;
6941;SDS011;3510;43.200;27.920;2023-04-16T05:13:09;11.15;;;6.82;;
6941;SDS011;3510;43.200;27.920;2023-04-16T05:15:35;7.75;;;5.88;;
6941;SDS011;3510;43.200;27.920;2023-04-16T05:18:04;9.75;;;6.40;;
6941;SDS011;3510;43.200;27.920;2023-04-16T05:23:00;8.43;;;6.00;;
6941;SDS011;3510;43.200;27.920;2023-04-16T05:25:28;8.77;;;6.18;;
6941;SDS011;3510;43.200;27.920;2023-04-16T05:27:55;9.95;;;6.32;;
6941;SDS011;3510;43.200;27.920;2023-04-16T05:30:22;10.93;;;6.72;;
6941;SDS011;3510;43.200;27.920;2023-04-16T05:32:49;7.07;;;6.25;;
6941;SDS011;3510;43.200;27.920;2023-04-16T05:35:16;19.40;;;6.95;;
6941;SDS011;3510;43.200;27.920;2023-04-16T05:37:43;13.75;;;6.63;;
6941;SDS011;3510;43.200;27.920;2023-04-16T05:40:12;14.23;;;6.22;;
6941;SDS011;3510;43.200;27.920;2023-04-16T05:42:39;18.48;;;6.72;;
6941;SDS011;3510;43.200;27.920;2023-04-16T05:45:12;16.63;;;6.88;;
6941;SDS011;3510;43.200;27.920;2023-04-16T05:47:38;14.55;;;6.22;;
6941;SDS011;3510;43.200;27.920;2023-04-16T05:50:06;14.15;;;7.05;;
6941;SDS011;3510;43.200;27.920;2023-04-16T05:52:33;12.15;;;6.10;;
6941;SDS011;3510;43.200;27.920;2023-04-16T05:55:00;15.18;;;6.35;;
6941;SDS011;3510;43.200;27.920;2023-04-16T06:00:12;10.23;;;5.40;;
6941;SDS011;3510;43.200;27.920;2023-04-16T06:02:39;9.15;;;5.93;;
6941;SDS011;3510;43.200;27.920;2023-04-16T06:05:06;10.55;;;6.25;;
6941;SDS011;3510;43.200;27.920;2023-04-16T06:07:34;9.55;;;6.78;;
6941;SDS011;3510;43.200;27.920;2023-04-16T06:10:00;12.45;;;6.03;;
6941;SDS011;3510;43.200;27.920;2023-04-16T06:12:27;6.90;;;6.28;;
6941;SDS011;3510;43.200;27.920;2023-04-16T06:14:56;11.93;;;5.95;;
6941;SDS011;3510;43.200;27.920;2023-04-16T06:17:23;10.15;;;6.22;;
6941;SDS011;3510;43.200;27.920;2023-04-16T06:19:51;11.07;;;5.25;;
6941;SDS011;3510;43.200;27.920;2023-04-16T06:22:18;10.93;;;5.70;;
6941;SDS011;3510;43.200;27.920;2023-04-16T06:24:45;6.95;;;5.50;;
6941;SDS011;3510;43.200;27.920;2023-04-16T06:27:12;9.65;;;4.68;;
6941;SDS011;3510;43.200;27.920;2023-04-16T06:29:39;12.93;;;5.72;;
6941;SDS011;3510;43.200;27.920;2023-04-16T06:32:07;7.28;;;4.60;;
6941;SDS011;3510;43.200;27.920;2023-04-16T06:34:34;5.95;;;5.22;;
6941;SDS011;3510;43.200;27.920;2023-04-16T06:37:02;6.63;;;4.70;;
6941;SDS011;3510;43.200;27.920;2023-04-16T06:39:29;7.25;;;5.03;;
6941;SDS011;3510;43.200;27.920;2023-04-16T06:41:57;8.05;;;5.28;;
6941;SDS011;3510;43.200;27.920;2023-04-16T06:44:24;8.77;;;5.50;;
6941;SDS011;3510;43.200;27.920;2023-04-16T06:46:50;8.43;;;5.72;;
6941;SDS011;3510;43.200;27.920;2023-04-16T06:49:20;6.45;;;5.15;;
6941;SDS011;3510;43.200;27.920;2023-04-16T06:51:47;8.10;;;4.78;;
6941;SDS011;3510;43.200;27.920;2023-04-16T06:54:14;15.32;;;5.57;;
6941;SDS011;3510;43.200;27.920;2023-04-16T06:56:42;11.52;;;5.20;;
6941;SDS011;3510;43.200;27.920;2023-04-16T06:59:09;6.95;;;5.57;;
6941;SDS011;3510;43.200;27.920;2023-04-16T07:01:36;6.97;;;5.50;;
6941;SDS011;3510;43.200;27.920;2023-04-16T07:04:03;7.22;;;5.30;;
6941;SDS011;3510;43.200;27.920;2023-04-16T07:06:32;7.05;;;4.65;;
6941;SDS011;3510;43.200;27.920;2023-04-16T07:08:58;6.30;;;4.75;;
6941;SDS011;3510;43.200;27.920;2023-04-16T07:11:25;10.07;;;4.80;;
6941;SDS011;3510;43.200;27.920;2023-04-16T07:13:52;6.55;;;4.50;;
6941;SDS011;3510;43.200;27.920;2023-04-16T07:16:19;6.82;;;4.40;;
6941;SDS011;3510;43.200;27.920;2023-04-16T07:18:46;8.45;;;4.45;;
6941;SDS011;3510;43.200;27.920;2023-04-16T07:21:12;6.88;;;4.40;;
6941;SDS011;3510;43.200;27.920;2023-04-16T07:23:43;6.85;;;4.80;;
6941;SDS011;3510;43.200;27.920;2023-04-16T07:26:10;8.85;;;4.70;;
6941;SDS011;3510;43.200;27.920;2023-04-16T07:28:37;8.60;;;7.00;;
6941;SDS011;3510;43.200;27.920;2023-04-16T07:31:04;7.20;;;5.32;;
6941;SDS011;3510;43.200;27.920;2023-04-16T07:33:31;8.07;;;5.07;;
6941;SDS011;3510;43.200;27.920;2023-04-16T07:35:58;8.32;;;5.55;;
6941;SDS011;3510;43.200;27.920;2023-04-16T07:38:25;7.50;;;5.78;;
6941;SDS011;3510;43.200;27.920;2023-04-16T07:40:53;15.20;;;5.45;;
6941;SDS011;3510;43.200;27.920;2023-04-16T07:43:20;7.53;;;5.47;;
6941;SDS011;3510;43.200;27.920;2023-04-16T07:45:48;6.80;;;5.82;;
6941;SDS011;3510;43.200;27.920;2023-04-16T07:48:15;5.68;;;5.22;;
6941;SDS011;3510;43.200;27.920;2023-04-16T07:50:43;5.30;;;4.82;;
6941;SDS011;3510;43.200;27.920;2023-04-16T07:53:10;7.60;;;5.45;;
6941;SDS011;3510;43.200;27.920;2023-04-16T07:55:37;11.88;;;5.55;;
6941;SDS011;3510;43.200;27.920;2023-04-16T07:58:05;6.40;;;5.30;;
6941;SDS011;3510;43.200;27.920;2023-04-16T08:00:33;8.95;;;5.28;;
6941;SDS011;3510;43.200;27.920;2023-04-16T08:03:00;13.48;;;5.80;;
6941;SDS011;3510;43.200;27.920;2023-04-16T08:05:31;7.72;;;5.65;;
6941;SDS011;3510;43.200;27.920;2023-04-16T08:07:58;6.15;;;5.55;;
6941;SDS011;3510;43.200;27.920;2023-04-16T08:10:25;8.60;;;5.47;;
6941;SDS011;3510;43.200;27.920;2023-04-16T08:12:52;6.35;;;4.88;;
6941;SDS011;3510;43.200;27.920;2023-04-16T08:15:20;7.28;;;5.53;;
6941;SDS011;3510;43.200;27.920;2023-04-16T08:17:47;15.75;;;6.50;;
6941;SDS011;3510;43.200;27.920;2023-04-16T08:20:14;9.07;;;5.53;;
6941;SDS011;3510;43.200;27.920;2023-04-16T08:22:41;7.85;;;4.60;;
6941;SDS011;3510;43.200;27.920;2023-04-16T08:25:08;13.40;;;5.80;;
6941;SDS011;3510;43.200;27.920;2023-04-16T08:27:36;6.22;;;5.80;;
6941;SDS011;3510;43.200;27.920;2023-04-16T08:30:03;7.78;;;5.88;;
6941;SDS011;3510;43.200;27.920;2023-04-16T08:32:33;7.43;;;5.35;;
6941;SDS011;3510;43.200;27.920;2023-04-16T08:35:01;8.25;;;5.90;;
6941;SDS011;3510;43.200;27.920;2023-04-16T08:37:28;10.73;;;7.00;;
6941;SDS011;3510;43.200;27.920;2023-04-16T08:39:55;7.50;;;6.18;;
6941;SDS011;3510;43.200;27.920;2023-04-16T08:42:38;11.18;;;6.25;;
6941;SDS011;3510;43.200;27.920;2023-04-16T08:45:20;8.32;;;5.70;;
6941;SDS011;3510;43.200;27.920;2023-04-16T08:54:09;7.18;;;5.05;;
6941;SDS011;3510;43.200;27.920;2023-04-16T08:56:53;12.07;;;5.00;;
6941;SDS011;3510;43.200;27.920;2023-04-16T08:59:25;8.32;;;4.65;;
6941;SDS011;3510;43.200;27.920;2023-04-16T09:01:55;17.90;;;6.72;;
6941;SDS011;3510;43.200;27.920;2023-04-16T09:04:25;5.35;;;4.65;;
6941;SDS011;3510;43.200;27.920;2023-04-16T09:06:55;7.18;;;4.43;;
6941;SDS011;3510;43.200;27.920;2023-04-16T09:09:24;8.60;;;5.15;;
6941;SDS011;3510;43.200;27.920;2023-04-16T09:11:52;8.77;;;4.15;;
6941;SDS011;3510;43.200;27.920;2023-04-16T09:14:19;6.28;;;4.72;;
6941;SDS011;3510;43.200;27.920;2023-04-16T09:16:47;9.05;;;4.82;;
6941;SDS011;3510;43.200;27.920;2023-04-16T09:19:18;5.07;;;4.57;;
6941;SDS011;3510;43.200;27.920;2023-04-16T09:21:46;6.05;;;5.00;;
6941;SDS011;3510;43.200;27.920;2023-04-16T09:24:16;6.43;;;4.93;;
6941;SDS011;3510;43.200;27.920;2023-04-16T09:26:44;9.38;;;5.32;;
6941;SDS011;3510;43.200;27.920;2023-04-16T09:29:11;7.18;;;5.03;;
6941;SDS011;3510;43.200;27.920;2023-04-16T09:32:01;5.55;;;5.15;;
6941;SDS011;3510;43.200;27.920;2023-04-16T09:34:30;6.65;;;6.10;;
6941;SDS011;3510;43.200;27.920;2023-04-16T09:39:41;8.32;;;5.97;;
6941;SDS011;3510;43.200;27.920;2023-04-16T09:42:08;5.53;;;4.85;;
6941;SDS011;3510;43.200;27.920;2023-04-16T09:44:37;5.63;;;5.00;;
6941;SDS011;3510;43.200;27.920;2023-04-16T09:47:04;5.00;;;4.70;;
6941;SDS011;3510;43.200;27.920;2023-04-16T09:49:32;6.15;;;5.25;;
6941;SDS011;3510;43.200;27.920;2023-04-16T09:52:01;5.35;;;4.80;;
6941;SDS011;3510;43.200;27.920;2023-04-16T09:54:28;6.05;;;4.88;;
6941;SDS011;3510;43.200;27.920;2023-04-16T09:56:57;5.38;;;4.82;;
6941;SDS011;3510;43.200;27.920;2023-04-16T09:59:26;6.00;;;5.50;;
6941;SDS011;3510;43.200;27.920;2023-04-16T10:01:58;7.32;;;4.93;;
6941;SDS011;3510;43.200;27.920;2023-04-16T10:04:26;6.07;;;5.10;;
6941;SDS011;3510;43.200;27.920;2023-04-16T10:07:03;5.47;;;5.10;;
6941;SDS011;3510;43.200;27.920;2023-04-16T10:09:32;5.22;;;4.82;;
6941;SDS011;3510;43.200;27.920;2023-04-16T10:12:05;5.20;;;4.80;;
6941;SDS011;3510;43.200;27.920;2023-04-16T10:14:33;6.60;;;4.90;;
6941;SDS011;3510;43.200;27.920;2023-04-16T10:17:01;5.32;;;4.82;;
6941;SDS011;3510;43.200;27.920;2023-04-16T10:19:28;6.60;;;5.25;;
6941;SDS011;3510;43.200;27.920;2023-04-16T10:21:56;5.78;;;5.35;;
6941;SDS011;3510;43.200;27.920;2023-04-16T10:24:24;5.30;;;4.80;;
6941;SDS011;3510;43.200;27.920;2023-04-16T10:26:52;7.95;;;6.05;;
6941;SDS011;3510;43.200;27.920;2023-04-16T10:29:22;5.20;;;4.78;;
6941;SDS011;3510;43.200;27.920;2023-04-16T10:31:50;5.13;;;4.63;;
6941;SDS011;3510;43.200;27.920;2023-04-16T10:34:20;8.80;;;4.63;;
6941;SDS011;3510;43.200;27.920;2023-04-16T10:37:02;5.05;;;4.65;;
6941;SDS011;3510;43.200;27.920;2023-04-16T10:39:43;5.78;;;5.03;;
6941;SDS011;3510;43.200;27.920;2023-04-16T10:42:10;5.32;;;4.80;;
6941;SDS011;3510;43.200;27.920;2023-04-16T10:44:39;7.57;;;4.95;;
6941;SDS011;3510;43.200;27.920;2023-04-16T10:47:09;5.88;;;5.32;;
6941;SDS011;3510;43.200;27.920;2023-04-16T10:49:37;6.22;;;5.50;;
6941;SDS011;3510;43.200;27.920;2023-04-16T10:52:07;5.75;;;5.25;;
6941;SDS011;3510;43.200;27.920;2023-04-16T10:54:37;7.85;;;5.30;;
6941;SDS011;3510;43.200;27.920;2023-04-16T10:57:05;7.72;;;4.80;;
6941;SDS011;3510;43.200;27.920;2023-04-16T10:59:36;8.38;;;4.60;;
6941;SDS011;3510;43.200;27.920;2023-04-16T11:02:06;7.72;;;4.85;;
6941;SDS011;3510;43.200;27.920;2023-04-16T11:04:37;9.20;;;4.50;;
6941;SDS011;3510;43.200;27.920;2023-04-16T11:07:06;6.28;;;4.93;;
6941;SDS011;3510;43.200;27.920;2023-04-16T11:09:43;5.90;;;4.90;;
6941;SDS011;3510;43.200;27.920;2023-04-16T11:12:12;6.85;;;5.10;;
6941;SDS011;3510;43.200;27.920;2023-04-16T11:14:40;6.80;;;4.50;;
6941;SDS011;3510;43.200;27.920;2023-04-16T11:17:09;7.40;;;4.90;;
6941;SDS011;3510;43.200;27.920;2023-04-16T11:19:36;5.95;;;4.80;;
6941;SDS011;3510;43.200;27.920;2023-04-16T11:22:04;5.40;;;4.85;;
6941;SDS011;3510;43.200;27.920;2023-04-16T11:24:31;8.00;;;4.97;;
6941;SDS011;3510;43.200;27.920;2023-04-16T11:26:58;9.50;;;5.00;;
6941;SDS011;3510;43.200;27.920;2023-04-16T11:29:25;6.63;;;5.18;;
6941;SDS011;3510;43.200;27.920;2023-04-16T11:31:54;7.50;;;5.05;;
6941;SDS011;3510;43.200;27.920;2023-04-16T11:34:23;8.05;;;4.88;;
6941;SDS011;3510;43.200;27.920;2023-04-16T11:36:51;6.28;;;4.35;;
6941;SDS011;3510;43.200;27.920;2023-04-16T11:39:18;5.40;;;4.30;;
6941;SDS011;3510;43.200;27.920;2023-04-16T11:41:58;9.10;;;5.47;;
6941;SDS011;3510;43.200;27.920;2023-04-16T11:44:31;6.07;;;4.75;;
6941;SDS011;3510;43.200;27.920;2023-04-16T11:46:58;6.45;;;4.50;;
6941;SDS011;3510;43.200;27.920;2023-04-16T11:49:33;8.18;;;4.30;;
6941;SDS011;3510;43.200;27.920;2023-04-16T11:52:00;6.32;;;4.65;;
6941;SDS011;3510;43.200;27.920;2023-04-16T11:54:31;7.13;;;4.93;;
6941;SDS011;3510;43.200;27.920;2023-04-16T11:57:24;6.05;;;4.55;;
6941;SDS011;3510;43.200;27.920;2023-04-16T11:59:53;8.90;;;5.30;;
6941;SDS011;3510;43.200;27.920;2023-04-16T12:05:06;6.95;;;5.10;;
6941;SDS011;3510;43.200;27.920;2023-04-16T12:07:51;9.60;;;5.47;;
6941;SDS011;3510;43.200;27.920;2023-04-16T12:10:18;10.13;;;4.72;;
6941;SDS011;3510;43.200;27.920;2023-04-16T12:12:45;8.57;;;5.55;;
6941;SDS011;3510;43.200;27.920;2023-04-16T12:15:12;10.63;;;4.65;;
6941;SDS011;3510;43.200;27.920;2023-04-16T12:17:38;12.10;;;5.55;;
6941;SDS011;3510;43.200;27.920;2023-04-16T12:20:09;10.70;;;4.70;;
6941;SDS011;3510;43.200;27.920;2023-04-16T12:22:37;5.95;;;4.22;;
6941;SDS011;3510;43.200;27.920;2023-04-16T12:25:06;11.30;;;4.43;;
6941;SDS011;3510;43.200;27.920;2023-04-16T12:27:39;9.57;;;4.25;;
6941;SDS011;3510;43.200;27.920;2023-04-16T12:30:07;6.13;;;4.10;;
6941;SDS011;3510;43.200;27.920;2023-04-16T12:32:35;6.65;;;4.35;;
6941;SDS011;3510;43.200;27.920;2023-04-16T12:35:02;6.25;;;4.30;;
6941;SDS011;3510;43.200;27.920;2023-04-16T12:37:31;8.70;;;4.72;;
6941;SDS011;3510;43.200;27.920;2023-04-16T12:39:59;7.85;;;4.28;;
6941;SDS011;3510;43.200;27.920;2023-04-16T12:42:26;11.05;;;5.15;;
6941;SDS011;3510;43.200;27.920;2023-04-16T12:44:59;8.20;;;4.22;;
6941;SDS011;3510;43.200;27.920;2023-04-16T12:47:26;6.75;;;5.00;;
6941;SDS011;3510;43.200;27.920;2023-04-16T12:49:54;8.50;;;4.55;;
6941;SDS011;3510;43.200;27.920;2023-04-16T12:52:21;7.60;;;5.10;;
6941;SDS011;3510;43.200;27.920;2023-04-16T12:54:50;4.93;;;4.50;;
6941;SDS011;3510;43.200;27.920;2023-04-16T12:57:19;7.50;;;4.50;;
6941;SDS011;3510;43.200;27.920;2023-04-16T12:59:52;10.57;;;5.00;;
6941;SDS011;3510;43.200;27.920;2023-04-16T13:02:19;13.55;;;4.63;;
6941;SDS011;3510;43.200;27.920;2023-04-16T13:04:47;9.63;;;4.68;;
6941;SDS011;3510;43.200;27.920;2023-04-16T13:07:28;14.43;;;5.22;;
6941;SDS011;3510;43.200;27.920;2023-04-16T13:09:57;11.73;;;5.70;;
6941;SDS011;3510;43.200;27.920;2023-04-16T13:12:25;10.55;;;4.88;;
6941;SDS011;3510;43.200;27.920;2023-04-16T13:14:52;9.88;;;5.22;;
6941;SDS011;3510;43.200;27.920;2023-04-16T13:17:20;8.13;;;4.40;;
6941;SDS011;3510;43.200;27.920;2023-04-16T13:19:47;11.52;;;5.50;;
6941;SDS011;3510;43.200;27.920;2023-04-16T13:22:14;9.32;;;4.65;;
6941;SDS011;3510;43.200;27.920;2023-04-16T13:24:41;9.95;;;4.82;;
6941;SDS011;3510;43.200;27.920;2023-04-16T13:27:16;8.45;;;4.63;;
6941;SDS011;3510;43.200;27.920;2023-04-16T13:29:42;7.85;;;4.72;;
6941;SDS011;3510;43.200;27.920;2023-04-16T13:32:09;8.82;;;4.75;;
6941;SDS011;3510;43.200;27.920;2023-04-16T13:34:38;7.95;;;5.28;;
6941;SDS011;3510;43.200;27.920;2023-04-16T13:37:04;13.88;;;5.22;;
6941;SDS011;3510;43.200;27.920;2023-04-16T13:39:31;11.73;;;5.60;;
6941;SDS011;3510;43.200;27.920;2023-04-16T13:42:02;14.32;;;5.35;;
6941;SDS011;3510;43.200;27.920;2023-04-16T13:44:31;9.13;;;5.22;;
6941;SDS011;3510;43.200;27.920;2023-04-16T13:46:58;6.85;;;5.75;;
6941;SDS011;3510;43.200;27.920;2023-04-16T13:49:25;15.25;;;5.30;;
6941;SDS011;3510;43.200;27.920;2023-04-16T13:51:52;9.20;;;5.60;;
6941;SDS011;3510;43.200;27.920;2023-04-16T13:54:19;12.60;;;5.70;;
6941;SDS011;3510;43.200;27.920;2023-04-16T13:56:46;7.50;;;5.28;;
6941;SDS011;3510;43.200;27.920;2023-04-16T13:59:12;12.57;;;6.20;;
6941;SDS011;3510;43.200;27.920;2023-04-16T14:01:42;9.45;;;4.65;;
6941;SDS011;3510;43.200;27.920;2023-04-16T14:04:09;11.07;;;5.57;;
6941;SDS011;3510;43.200;27.920;2023-04-16T14:06:36;8.88;;;5.00;;
6941;SDS011;3510;43.200;27.920;2023-04-16T14:09:03;6.93;;;5.40;;
6941;SDS011;3510;43.200;27.920;2023-04-16T14:11:30;11.55;;;4.57;;
6941;SDS011;3510;43.200;27.920;2023-04-16T14:13:57;11.50;;;4.80;;
6941;SDS011;3510;43.200;27.920;2023-04-16T14:16:25;12.88;;;5.70;;
6941;SDS011;3510;43.200;27.920;2023-04-16T14:18:55;10.23;;;6.18;;
6941;SDS011;3510;43.200;27.920;2023-04-16T14:21:21;15.02;;;6.78;;
6941;SDS011;3510;43.200;27.920;2023-04-16T14:23:51;10.15;;;4.93;;
6941;SDS011;3510;43.200;27.920;2023-04-16T14:26:18;12.68;;;5.53;;
6941;SDS011;3510;43.200;27.920;2023-04-16T14:28:45;12.68;;;5.30;;
6941;SDS011;3510;43.200;27.920;2023-04-16T14:31:13;8.85;;;5.57;;
6941;SDS011;3510;43.200;27.920;2023-04-16T14:33:41;9.35;;;4.95;;
6941;SDS011;3510;43.200;27.920;2023-04-16T14:36:09;10.68;;;5.05;;
6941;SDS011;3510;43.200;27.920;2023-04-16T14:38:36;15.40;;;5.57;;
6941;SDS011;3510;43.200;27.920;2023-04-16T14:41:05;8.57;;;4.97;;
6941;SDS011;3510;43.200;27.920;2023-04-16T14:43:31;12.10;;;5.50;;
6941;SDS011;3510;43.200;27.920;2023-04-16T14:45:59;11.02;;;5.55;;
6941;SDS011;3510;43.200;27.920;2023-04-16T14:48:27;11.07;;;5.78;;
6941;SDS011;3510;43.200;27.920;2023-04-16T14:50:55;13.82;;;6.53;;
6941;SDS011;3510;43.200;27.920;2023-04-16T14:53:23;11.50;;;5.10;;
6941;SDS011;3510;43.200;27.920;2023-04-16T14:55:50;8.95;;;5.28;;
6941;SDS011;3510;43.200;27.920;2023-04-16T14:58:18;10.98;;;5.60;;
6941;SDS011;3510;43.200;27.920;2023-04-16T15:00:45;10.73;;;5.03;;
6941;SDS011;3510;43.200;27.920;2023-04-16T15:03:12;8.43;;;5.57;;
6941;SDS011;3510;43.200;27.920;2023-04-16T15:05:42;5.97;;;4.70;;
6941;SDS011;3510;43.200;27.920;2023-04-16T15:08:11;13.77;;;5.85;;
6941;SDS011;3510;43.200;27.920;2023-04-16T15:10:40;12.82;;;6.07;;
6941;SDS011;3510;43.200;27.920;2023-04-16T15:13:09;8.90;;;5.50;;
6941;SDS011;3510;43.200;27.920;2023-04-16T15:15:37;14.00;;;6.57;;
6941;SDS011;3510;43.200;27.920;2023-04-16T15:18:04;13.35;;;5.88;;
6941;SDS011;3510;43.200;27.920;2023-04-16T15:20:31;15.02;;;6.20;;
6941;SDS011;3510;43.200;27.920;2023-04-16T15:22:58;12.57;;;6.32;;